Time;durP1;ratioP1;P1;durP2;ratioP2;P2;SDS_P1;SDS_P2;PMS_P1;PMS_P2;Temp;Humidity;BMP_temperature;BMP_pressure;BME280_temperature;BME280_humidity;BME280_pressure;Samples;Min_cycle;Max_cycle;Signal;HPM_P1;HPM_P2
2024/02/13 00:00:55;;;;;;;11.73;8.52;;;12.00;86.30;;;;;;5076005;28;20047;-72
2024/02/13 00:03:22;;;;;;;15.45;9.13;;;12.00;86.30;;;;;;5056994;28;20037;-71
2024/02/13 00:05:48;;;;;;;16.33;7.65;;;12.00;86.40;;;;;;5052321;28;20128;-71
2024/02/13 00:08:14;;;;;;;15.88;8.65;;;11.90;86.60;;;;;;5052196;28;20053;-72
2024/02/13 00:10:41;;;;;;;13.63;8.43;;;12.00;86.70;;;;;;5034349;28;20083;-72
2024/02/13 00:13:07;;;;;;;14.50;8.30;;;12.00;86.60;;;;;;5052382;28;20506;-71
2024/02/13 00:15:32;;;;;;;15.95;8.95;;;12.00;86.70;;;;;;5052022;28;20069;-71
2024/02/13 00:17:59;;;;;;;17.30;9.15;;;12.10;86.80;;;;;;5051904;28;20510;-72
2024/02/13 00:20:25;;;;;;;13.27;7.88;;;12.10;86.80;;;;;;5052295;28;20565;-72
2024/02/13 00:22:52;;;;;;;16.48;8.50;;;12.10;86.90;;;;;;5052247;28;20071;-72
2024/02/13 00:25:18;;;;;;;16.42;8.25;;;12.10;86.90;;;;;;5051919;28;20049;-71
2024/02/13 00:27:44;;;;;;;15.77;8.52;;;12.00;86.70;;;;;;5052097;28;20033;-71
2024/02/13 00:30:11;;;;;;;12.88;7.60;;;12.00;86.90;;;;;;5052085;28;20057;-72
2024/02/13 00:32:40;;;;;;;13.50;7.43;;;11.90;87.00;;;;;;5051967;28;20370;-72
2024/02/13 00:35:08;;;;;;;15.40;8.15;;;11.90;87.00;;;;;;5052254;28;20163;-71
2024/02/13 00:37:36;;;;;;;13.60;8.15;;;12.00;87.20;;;;;;5052045;28;20065;-71
2024/02/13 00:40:05;;;;;;;12.05;7.50;;;11.90;86.90;;;;;;5052066;28;20107;-71
2024/02/13 00:42:35;;;;;;;12.73;7.03;;;11.90;86.90;;;;;;5034009;28;20363;-73
2024/02/13 00:45:05;;;;;;;16.52;7.53;;;11.90;87.20;;;;;;5051884;28;20045;-71
2024/02/13 00:47:31;;;;;;;13.18;7.28;;;11.90;86.80;;;;;;5051728;28;20104;-72
2024/02/13 00:49:58;;;;;;;12.05;7.32;;;11.90;86.80;;;;;;5052034;28;20098;-72
2024/02/13 00:52:23;;;;;;;17.23;8.27;;;11.90;86.70;;;;;;5051895;28;20389;-70
2024/02/13 00:54:49;;;;;;;12.68;8.07;;;11.90;86.90;;;;;;5051807;28;20041;-71
2024/02/13 00:57:15;;;;;;;11.55;7.30;;;11.80;86.80;;;;;;5051911;28;20029;-70
2024/02/13 00:59:43;;;;;;;14.85;7.50;;;11.80;86.80;;;;;;5051279;28;20056;-71
2024/02/13 01:02:08;;;;;;;13.77;7.45;;;11.80;86.80;;;;;;5051538;28;20037;-71
2024/02/13 01:04:34;;;;;;;13.57;7.25;;;11.70;86.90;;;;;;5051251;28;20037;-72
2024/02/13 01:07:01;;;;;;;14.60;7.78;;;11.70;86.90;;;;;;5033417;28;20070;-71
2024/02/13 01:09:26;;;;;;;12.48;7.68;;;11.70;87.40;;;;;;5054763;28;20075;-73
2024/02/13 01:11:52;;;;;;;12.68;7.65;;;11.70;87.30;;;;;;5055113;28;20029;-71
2024/02/13 01:14:18;;;;;;;13.65;7.47;;;11.60;87.30;;;;;;5055400;28;20052;-71
2024/02/13 01:16:44;;;;;;;15.07;7.97;;;11.60;87.70;;;;;;5055429;28;20037;-71
2024/02/13 01:19:10;;;;;;;12.80;7.25;;;11.60;87.70;;;;;;5054962;28;20035;-71
2024/02/13 01:21:36;;;;;;;16.55;7.65;;;11.60;87.60;;;;;;5055344;28;20029;-71
2024/02/13 01:24:02;;;;;;;13.40;7.93;;;11.50;87.70;;;;;;5037193;28;20033;-72
2024/02/13 01:26:29;;;;;;;12.52;7.75;;;11.50;87.70;;;;;;5054718;28;20059;-71
2024/02/13 01:28:54;;;;;;;15.20;8.05;;;11.50;87.80;;;;;;5055133;28;20049;-71
2024/02/13 01:31:20;;;;;;;17.13;8.05;;;11.50;87.80;;;;;;5055267;28;20063;-72
2024/02/13 01:33:46;;;;;;;14.23;8.13;;;11.50;87.90;;;;;;5055131;28;20067;-72
2024/02/13 01:36:11;;;;;;;15.68;8.30;;;11.40;88.20;;;;;;5054993;28;20085;-72
2024/02/13 01:38:37;;;;;;;16.67;7.72;;;11.40;88.10;;;;;;5054871;28;20610;-71
2024/02/13 01:41:03;;;;;;;12.65;8.00;;;11.40;88.10;;;;;;5054658;28;20052;-71
2024/02/13 01:43:32;;;;;;;12.57;7.95;;;11.30;88.40;;;;;;5054597;28;20376;-71
2024/02/13 01:46:02;;;;;;;15.23;9.23;;;11.30;88.60;;;;;;5054663;28;20187;-72
2024/02/13 01:48:29;;;;;;;16.30;9.20;;;11.30;88.70;;;;;;5036908;28;20052;-72
2024/02/13 01:51:00;;;;;;;18.30;8.90;;;11.20;88.80;;;;;;5054529;28;20032;-71
2024/02/13 01:53:29;;;;;;;15.23;9.65;;;11.20;88.90;;;;;;5054703;28;20111;-72
2024/02/13 01:55:57;;;;;;;17.15;10.10;;;11.20;89.20;;;;;;5054570;28;20528;-71
2024/02/13 01:58:23;;;;;;;17.55;11.23;;;11.20;89.40;;;;;;5054427;28;20073;-71
2024/02/13 02:01:01;;;;;;;16.90;11.25;;;11.20;89.20;;;;;;5054430;28;20068;-71
2024/02/13 02:03:36;;;;;;;16.45;10.50;;;11.10;89.30;;;;;;5036432;28;20033;-71
2024/02/13 02:06:05;;;;;;;17.00;10.95;;;11.10;89.20;;;;;;5054136;28;20041;-70
2024/02/13 02:08:31;;;;;;;17.23;10.43;;;11.10;89.50;;;;;;5036310;28;20036;-71
2024/02/13 02:10:57;;;;;;;15.85;10.45;;;11.10;89.40;;;;;;5053745;28;20037;-74
2024/02/13 02:13:25;;;;;;;18.75;11.85;;;11.10;89.50;;;;;;5054377;28;20025;-72
2024/02/13 02:15:51;;;;;;;18.15;11.88;;;11.10;89.60;;;;;;5053937;28;20037;-71
2024/02/13 02:18:17;;;;;;;17.88;12.10;;;11.10;89.60;;;;;;5053908;28;20047;-72
2024/02/13 02:20:44;;;;;;;20.33;10.90;;;11.10;89.60;;;;;;5034932;28;20044;-71
2024/02/13 02:23:09;;;;;;;19.50;10.75;;;11.10;89.90;;;;;;5053963;28;20033;-72
2024/02/13 02:25:35;;;;;;;14.80;9.57;;;11.10;90.00;;;;;;5057396;28;20102;-71
2024/02/13 02:28:01;;;;;;;16.02;9.07;;;11.10;89.90;;;;;;5041332;28;20443;-71
2024/02/13 02:30:27;;;;;;;14.93;8.75;;;11.20;89.80;;;;;;5056787;28;20390;-71
2024/02/13 02:32:52;;;;;;;18.40;8.88;;;11.10;89.80;;;;;;5054797;28;20029;-71
2024/02/13 02:35:18;;;;;;;14.25;7.82;;;11.10;89.90;;;;;;5035772;28;20044;-71
2024/02/13 02:37:48;;;;;;;14.15;8.02;;;11.10;90.00;;;;;;5053713;28;20036;-71
2024/02/13 02:40:16;;;;;;;16.20;7.80;;;11.10;89.80;;;;;;5053690;28;20098;-71
2024/02/13 02:42:45;;;;;;;15.45;7.82;;;11.10;89.80;;;;;;5036018;28;20075;-72
2024/02/13 02:45:10;;;;;;;13.43;7.07;;;11.10;89.90;;;;;;5054712;28;20069;-74
2024/02/13 02:47:36;;;;;;;16.65;7.72;;;11.20;90.00;;;;;;5053600;28;20505;-70
2024/02/13 02:50:02;;;;;;;15.90;7.38;;;11.10;89.70;;;;;;5053212;28;20025;-71
2024/02/13 02:52:28;;;;;;;15.75;6.57;;;11.10;89.60;;;;;;5053303;28;20068;-73
2024/02/13 02:54:53;;;;;;;12.85;6.47;;;11.10;89.60;;;;;;5053342;28;20040;-70
2024/02/13 02:57:19;;;;;;;15.30;6.80;;;11.10;89.50;;;;;;5053290;28;20056;-72
2024/02/13 02:59:46;;;;;;;13.40;6.00;;;11.10;89.30;;;;;;5034892;28;20110;-71
2024/02/13 03:02:12;;;;;;;11.57;6.30;;;11.10;89.30;;;;;;5052880;28;20043;-69
2024/02/13 03:04:39;;;;;;;13.90;6.13;;;11.00;89.40;;;;;;5052770;28;20059;-71
2024/02/13 03:07:05;;;;;;;13.20;6.53;;;11.10;89.60;;;;;;5053019;28;20112;-71
2024/02/13 03:09:30;;;;;;;11.02;5.63;;;11.10;89.40;;;;;;5053319;28;20513;-72
2024/02/13 03:11:56;;;;;;;12.93;5.40;;;11.10;89.40;;;;;;5053227;28;20065;-72
2024/02/13 03:14:22;;;;;;;11.90;5.50;;;11.20;89.30;;;;;;5053037;28;20025;-71
2024/02/13 03:16:49;;;;;;;14.90;5.88;;;11.10;89.10;;;;;;5052865;28;20037;-71
2024/02/13 03:19:15;;;;;;;11.43;5.55;;;11.00;89.60;;;;;;5052807;28;20033;-71
2024/02/13 03:21:42;;;;;;;15.20;6.13;;;11.00;89.60;;;;;;5053103;28;20123;-72
2024/02/13 03:24:08;;;;;;;15.10;5.75;;;10.90;89.50;;;;;;5052868;28;20121;-72
2024/02/13 03:26:34;;;;;;;10.90;5.65;;;11.00;89.70;;;;;;5052759;28;20093;-71
2024/02/13 03:29:02;;;;;;;10.98;5.30;;;11.00;89.70;;;;;;5052438;28;20029;-72
2024/02/13 03:31:27;;;;;;;10.32;6.30;;;11.00;89.80;;;;;;5052441;28;20099;-71
2024/02/13 03:33:53;;;;;;;10.52;5.32;;;11.00;89.70;;;;;;5052473;28;20021;-71
2024/02/13 03:36:19;;;;;;;13.00;6.35;;;11.00;89.70;;;;;;5052698;28;20406;-72
2024/02/13 03:38:48;;;;;;;13.35;6.35;;;11.00;89.60;;;;;;5052756;28;20045;-72
2024/02/13 03:41:14;;;;;;;9.68;5.97;;;10.90;89.40;;;;;;5052462;28;20063;-72
2024/02/13 03:43:44;;;;;;;11.45;5.85;;;10.90;90.00;;;;;;5034384;28;20033;-71
2024/02/13 03:46:10;;;;;;;11.52;5.55;;;10.90;89.90;;;;;;5052487;28;20041;-72
2024/02/13 03:48:36;;;;;;;10.93;6.68;;;10.80;89.90;;;;;;5052604;28;20390;-71
2024/02/13 03:51:03;;;;;;;12.90;6.22;;;10.80;89.80;;;;;;5052379;28;20410;-70
2024/02/13 03:53:29;;;;;;;10.98;5.97;;;10.70;89.90;;;;;;5052033;28;20347;-72
2024/02/13 03:55:55;;;;;;;13.10;6.38;;;10.70;90.20;;;;;;5052369;28;20039;-73
2024/02/13 03:58:21;;;;;;;17.05;5.72;;;10.70;90.30;;;;;;5052638;28;20163;-71
2024/02/13 04:00:47;;;;;;;12.75;6.25;;;10.80;90.60;;;;;;5034036;28;20499;-71
2024/02/13 04:03:12;;;;;;;16.38;6.22;;;10.80;90.30;;;;;;5052109;28;20033;-72
2024/02/13 04:05:39;;;;;;;15.02;6.32;;;10.70;90.30;;;;;;5052377;28;20037;-72
2024/02/13 04:08:08;;;;;;;11.05;6.38;;;10.70;90.40;;;;;;5052286;28;20409;-71
2024/02/13 04:10:35;;;;;;;14.32;6.80;;;10.70;90.50;;;;;;5052024;28;20032;-71
2024/02/13 04:13:01;;;;;;;13.13;6.40;;;10.70;90.40;;;;;;5052894;28;20025;-71
2024/02/13 04:15:26;;;;;;;14.85;5.97;;;10.80;90.40;;;;;;5052002;28;20495;-71
2024/02/13 04:17:52;;;;;;;11.93;5.40;;;10.80;90.30;;;;;;5052095;28;20033;-72
2024/02/13 04:20:18;;;;;;;12.82;5.60;;;10.80;90.40;;;;;;5033902;28;20039;-72
2024/02/13 04:22:44;;;;;;;10.10;4.78;;;10.80;90.30;;;;;;5051948;28;20491;-72
2024/02/13 04:25:10;;;;;;;12.25;5.70;;;10.70;90.30;;;;;;5051722;28;20040;-72
2024/02/13 04:27:37;;;;;;;10.23;5.10;;;10.70;90.40;;;;;;5051781;28;20512;-72
2024/02/13 04:30:04;;;;;;;15.32;4.97;;;10.70;90.50;;;;;;5051895;28;20113;-72
2024/02/13 04:32:30;;;;;;;10.68;4.80;;;10.60;90.50;;;;;;5051903;28;20044;-72
2024/02/13 04:34:56;;;;;;;11.00;4.53;;;10.50;90.50;;;;;;5052118;28;20033;-72
2024/02/13 04:37:24;;;;;;;11.55;5.18;;;10.60;90.60;;;;;;5051852;28;20041;-71
2024/02/13 04:39:50;;;;;;;12.07;4.78;;;10.60;90.70;;;;;;5051667;28;20040;-71
2024/02/13 04:42:31;;;;;;;15.30;4.88;;;10.60;90.60;;;;;;5051639;28;20104;-70
2024/02/13 04:44:59;;;;;;;11.13;4.43;;;10.60;90.50;;;;;;5055646;28;20119;-72
2024/02/13 04:47:27;;;;;;;13.27;4.30;;;10.70;90.50;;;;;;5055848;28;20033;-72
2024/02/13 04:49:54;;;;;;;9.77;4.75;;;10.70;90.50;;;;;;5055461;28;20410;-72
2024/02/13 04:52:20;;;;;;;14.60;5.22;;;10.80;90.50;;;;;;5055640;28;20025;-72
2024/02/13 04:54:46;;;;;;;14.07;4.97;;;10.80;90.50;;;;;;5055651;28;20044;-72
2024/02/13 04:57:12;;;;;;;10.70;4.50;;;10.90;90.50;;;;;;5037616;28;20465;-72
2024/02/13 23:00:20;;;;;;;7.43;4.25;;;12.00;61.20;;;;;;5078728;23;20071;-73
2024/02/13 23:02:46;;;;;;;9.52;4.95;;;11.90;61.00;;;;;;5074589;28;20040;-73
2024/02/13 23:05:11;;;;;;;8.73;4.63;;;11.90;60.60;;;;;;5074305;28;20055;-71
2024/02/13 23:07:37;;;;;;;10.30;4.43;;;12.00;60.90;;;;;;5072883;28;20032;-73
2024/02/13 23:10:03;;;;;;;7.40;4.22;;;12.00;61.00;;;;;;5072702;28;20079;-72
2024/02/13 23:12:30;;;;;;;6.97;4.18;;;11.90;61.00;;;;;;5073905;28;20499;-71
2024/02/13 23:14:56;;;;;;;8.95;4.20;;;11.90;60.90;;;;;;5073458;28;20028;-71
2024/02/13 23:17:21;;;;;;;7.20;4.18;;;11.90;61.00;;;;;;5073446;28;20039;-73
2024/02/13 23:19:48;;;;;;;8.48;4.45;;;11.80;60.90;;;;;;5073428;28;20094;-71
2024/02/13 23:22:15;;;;;;;9.60;4.63;;;11.80;60.90;;;;;;5073306;28;20027;-72
2024/02/13 23:24:41;;;;;;;8.98;4.88;;;11.80;60.80;;;;;;5073442;28;20123;-72
2024/02/13 23:27:06;;;;;;;7.32;4.38;;;11.80;61.00;;;;;;5073052;28;20128;-72
2024/02/13 23:29:32;;;;;;;7.72;4.32;;;11.80;61.10;;;;;;5073223;28;20028;-73
2024/02/13 23:31:58;;;;;;;8.77;4.50;;;11.70;60.90;;;;;;5072991;28;20041;-73
2024/02/13 23:34:23;;;;;;;7.85;4.32;;;11.70;60.80;;;;;;5073288;28;20032;-73
2024/02/13 23:36:49;;;;;;;10.50;4.63;;;11.60;60.80;;;;;;5071367;28;20089;-72
2024/02/13 23:39:15;;;;;;;10.05;4.82;;;11.60;61.10;;;;;;5072622;28;20401;-73
2024/02/13 23:41:40;;;;;;;7.70;3.75;;;11.50;61.30;;;;;;5073237;28;20028;-72
2024/02/13 23:44:06;;;;;;;7.88;4.10;;;11.50;61.20;;;;;;5072824;28;20043;-72
2024/02/13 23:46:32;;;;;;;9.45;4.10;;;11.50;61.40;;;;;;5072690;28;20465;-71
2024/02/13 23:48:58;;;;;;;6.72;4.35;;;11.50;61.50;;;;;;5072773;28;20040;-71
2024/02/13 23:51:25;;;;;;;8.63;4.07;;;11.40;62.00;;;;;;5072584;28;20421;-72
2024/02/13 23:53:51;;;;;;;8.50;4.25;;;11.40;61.50;;;;;;5072611;28;20029;-72
2024/02/13 23:56:17;;;;;;;7.90;4.13;;;11.30;61.60;;;;;;5071007;28;20106;-71
2024/02/13 23:58:45;;;;;;;7.72;3.95;;;11.30;61.60;;;;;;5072000;28;20429;-71
